AFV1 HKJK-HKJK
Flight info
| Callsign | AFV1 |
|---|---|
| Flight time | N/A |
| Altitude | 12000 |
| Route | TV DCT GV |
| Aircraft | B788/H-SDE1E2E3FGHIJ2J3J4J5M1RWXY/LB1D1 |
Departure
| Time | 2026-04-29 15:15 |
|---|---|
| Airport | Jomo Kenyatta International Airport (HKJK) |
Arrival
| Time | N/A |
|---|---|
| Airport | Jomo Kenyatta International Airport (HKJK) |
| Time | Latitude | Longitude | Altitude | Speed | Heading |
|---|---|---|---|---|---|
| 2026-04-29 15:15 | -1.34958 | 37.25985 | 10207 ft | 310 kts | 181° |
| 2026-04-29 15:15 | -1.37042 | 37.25504 | 10240 ft | 312 kts | 200° |
| 2026-04-29 15:15 | -1.38935 | 37.24452 | 10214 ft | 316 kts | 218° |
| 2026-04-29 15:16 | -1.40438 | 37.22836 | 10249 ft | 314 kts | 233° |
| 2026-04-29 15:16 | -1.41626 | 37.21008 | 10261 ft | 314 kts | 237° |
| 2026-04-29 15:16 | -1.42805 | 37.19172 | 10243 ft | 314 kts | 235° |
| 2026-04-29 15:16 | -1.44089 | 37.17396 | 10234 ft | 314 kts | 233° |
| 2026-04-29 15:17 | -1.45386 | 37.15650 | 10229 ft | 313 kts | 233° |
| 2026-04-29 15:17 | -1.46692 | 37.13896 | 10227 ft | 313 kts | 233° |
| 2026-04-29 15:17 | -1.48002 | 37.12139 | 10227 ft | 314 kts | 233° |
| 2026-04-29 15:17 | -1.49303 | 37.10395 | 10226 ft | 314 kts | 233° |
| 2026-04-29 15:18 | -1.50585 | 37.08674 | 10222 ft | 309 kts | 233° |
| 2026-04-29 15:18 | -1.51863 | 37.06957 | 10217 ft | 299 kts | 233° |
| 2026-04-29 15:18 | -1.53083 | 37.05315 | 10209 ft | 287 kts | 233° |
| 2026-04-29 15:18 | -1.54254 | 37.03740 | 10201 ft | 276 kts | 233° |
| 2026-04-29 15:19 | -1.55370 | 37.02237 | 10188 ft | 266 kts | 233° |
| 2026-04-29 15:19 | -1.56464 | 37.00765 | 10051 ft | 264 kts | 233° |
| 2026-04-29 15:19 | -1.57558 | 36.99299 | 10111 ft | 261 kts | 233° |
| 2026-04-29 15:19 | -1.58656 | 36.97830 | 10184 ft | 271 kts | 233° |
| 2026-04-29 15:20 | -1.59804 | 36.96295 | 10215 ft | 279 kts | 233° |
| 2026-04-29 15:20 | -1.60961 | 36.94750 | 10213 ft | 276 kts | 233° |
| 2026-04-29 15:20 | -1.62103 | 36.93224 | 10070 ft | 270 kts | 233° |
| 2026-04-29 15:20 | -1.63229 | 36.91713 | 9685 ft | 271 kts | 233° |
| 2026-04-29 15:21 | -1.64348 | 36.90205 | 9344 ft | 269 kts | 233° |
| 2026-04-29 15:21 | -1.65468 | 36.88697 | 9033 ft | 267 kts | 233° |
| 2026-04-29 15:21 | -1.66576 | 36.87198 | 8655 ft | 269 kts | 233° |
| 2026-04-29 15:21 | -1.67694 | 36.85681 | 8389 ft | 264 kts | 233° |
| 2026-04-29 15:22 | -1.68772 | 36.84226 | 8273 ft | 255 kts | 233° |
| 2026-04-29 15:22 | -1.69709 | 36.82743 | 8202 ft | 256 kts | 247° |
| 2026-04-29 15:22 | -1.69939 | 36.80978 | 8233 ft | 260 kts | 275° |
| 2026-04-29 15:22 | -1.69356 | 36.79313 | 8252 ft | 247 kts | 302° |
| 2026-04-29 15:23 | -1.68209 | 36.78132 | 8265 ft | 222 kts | 320° |
| 2026-04-29 15:23 | -1.67051 | 36.77178 | 8340 ft | 217 kts | 321° |
| 2026-04-29 15:23 | -1.65899 | 36.76230 | 8315 ft | 212 kts | 321° |
| 2026-04-29 15:23 | -1.64782 | 36.75297 | 8362 ft | 211 kts | 320° |
| 2026-04-29 15:24 | -1.63631 | 36.74343 | 8308 ft | 210 kts | 321° |
| 2026-04-29 15:24 | -1.62483 | 36.73497 | 8254 ft | 213 kts | 332° |
| 2026-04-29 15:24 | -1.61046 | 36.73188 | 8288 ft | 209 kts | 355° |
| 2026-04-29 15:24 | -1.59584 | 36.73071 | 8334 ft | 209 kts | 356° |
| 2026-04-29 15:25 | -1.58139 | 36.72955 | 8330 ft | 210 kts | 356° |
| 2026-04-29 15:25 | -1.56670 | 36.72835 | 8296 ft | 210 kts | 355° |
| 2026-04-29 15:25 | -1.55222 | 36.72720 | 8301 ft | 210 kts | 356° |
| 2026-04-29 15:25 | -1.53750 | 36.72599 | 8304 ft | 210 kts | 356° |
| 2026-04-29 15:26 | -1.52309 | 36.72473 | 8290 ft | 210 kts | 355° |
| 2026-04-29 15:26 | -1.50835 | 36.72353 | 8266 ft | 210 kts | 355° |
| 2026-04-29 15:26 | -1.49413 | 36.72236 | 8280 ft | 210 kts | 357° |
| 2026-04-29 15:26 | -1.47976 | 36.72502 | 8225 ft | 211 kts | 21° |
| 2026-04-29 15:27 | -1.46653 | 36.73094 | 8341 ft | 209 kts | 27° |
| 2026-04-29 15:27 | -1.45565 | 36.74059 | 8289 ft | 210 kts | 50° |
| 2026-04-29 15:27 | -1.44674 | 36.75223 | 8335 ft | 209 kts | 54° |
| 2026-04-29 15:27 | -1.43836 | 36.76388 | 8360 ft | 207 kts | 55° |
| 2026-04-29 15:28 | -1.43009 | 36.77561 | 8329 ft | 207 kts | 55° |
| 2026-04-29 15:28 | -1.42452 | 36.78338 | 8321 ft | 203 kts | 55° |
| 2026-04-29 15:28 | -1.41373 | 36.79814 | 8157 ft | 194 kts | 55° |
| 2026-04-29 15:28 | -1.40580 | 36.80882 | 7922 ft | 190 kts | 54° |
| 2026-04-29 15:29 | -1.39800 | 36.81944 | 7666 ft | 186 kts | 56° |
| 2026-04-29 15:29 | -1.38351 | 36.83956 | 7185 ft | 171 kts | 56° |
| 2026-04-29 15:30 | -1.36999 | 36.85815 | 6701 ft | 168 kts | 55° |
| 2026-04-29 15:30 | -1.36299 | 36.86769 | 6765 ft | 167 kts | 55° |
| 2026-04-29 15:30 | -1.35580 | 36.87729 | 6422 ft | 183 kts | 55° |
| 2026-04-29 15:30 | -1.34776 | 36.88795 | 6070 ft | 199 kts | 55° |
| 2026-04-29 15:31 | -1.33928 | 36.90011 | 5886 ft | 227 kts | 56° |
| 2026-04-29 15:31 | -1.32945 | 36.91376 | 5499 ft | 256 kts | 55° |
| 2026-04-29 15:31 | -1.31954 | 36.92697 | 6393 ft | 229 kts | 53° |
| 2026-04-29 15:31 | -1.31009 | 36.93913 | 7101 ft | 216 kts | 53° |
| 2026-04-29 15:32 | -1.30066 | 36.95100 | 7578 ft | 222 kts | 52° |
| 2026-04-29 15:32 | -1.29087 | 36.96307 | 8014 ft | 225 kts | 51° |
| 2026-04-29 15:32 | -1.28065 | 36.97525 | 8465 ft | 228 kts | 50° |
| 2026-04-29 15:32 | -1.27210 | 36.98943 | 8419 ft | 252 kts | 70° |
| 2026-04-29 15:33 | -1.27086 | 37.00666 | 8268 ft | 251 kts | 98° |
| 2026-04-29 15:33 | -1.27781 | 37.02215 | 8187 ft | 243 kts | 127° |
| 2026-04-29 15:33 | -1.29038 | 37.03315 | 8234 ft | 239 kts | 142° |
| 2026-04-29 15:33 | -1.30359 | 37.04312 | 8202 ft | 240 kts | 143° |
| 2026-04-29 15:34 | -1.31702 | 37.05328 | 8180 ft | 240 kts | 143° |
| 2026-04-29 15:34 | -1.33032 | 37.06331 | 8198 ft | 238 kts | 143° |
| 2026-04-29 15:34 | -1.34358 | 37.07325 | 8201 ft | 237 kts | 143° |
| 2026-04-29 15:34 | -1.35661 | 37.08290 | 8215 ft | 236 kts | 146° |
| 2026-04-29 15:35 | -1.37209 | 37.08837 | 8113 ft | 236 kts | 175° |
| 2026-04-29 15:35 | -1.38763 | 37.08535 | 8205 ft | 229 kts | 204° |
| 2026-04-29 15:35 | -1.39655 | 37.07900 | 8206 ft | 237 kts | 224° |
| 2026-04-29 15:35 | -1.41024 | 37.06124 | 8358 ft | 254 kts | 233° |
| 2026-04-29 15:36 | -1.42082 | 37.04689 | 8296 ft | 254 kts | 233° |
| 2026-04-29 15:36 | -1.43097 | 37.03303 | 8278 ft | 241 kts | 233° |
| 2026-04-29 15:36 | -1.44074 | 37.01977 | 8249 ft | 234 kts | 233° |
| 2026-04-29 15:36 | -1.45039 | 37.00677 | 8215 ft | 236 kts | 233° |
| 2026-04-29 15:37 | -1.46028 | 36.99343 | 8263 ft | 243 kts | 233° |
| 2026-04-29 15:37 | -1.47059 | 36.97951 | 8266 ft | 250 kts | 232° |
| 2026-04-29 15:37 | -1.47737 | 36.97030 | 8250 ft | 248 kts | 232° |
| 2026-04-29 15:37 | -1.49086 | 36.95215 | 8214 ft | 242 kts | 232° |
| 2026-04-29 15:38 | -1.50089 | 36.93866 | 8234 ft | 245 kts | 233° |
| 2026-04-29 15:38 | -1.51106 | 36.92491 | 8249 ft | 247 kts | 233° |
| 2026-04-29 15:38 | -1.52126 | 36.91099 | 8230 ft | 246 kts | 235° |
| 2026-04-29 15:38 | -1.52699 | 36.89512 | 8169 ft | 246 kts | 262° |
| 2026-04-29 15:39 | -1.52616 | 36.88376 | 8213 ft | 242 kts | 281° |
| 2026-04-29 15:39 | -1.51850 | 36.86926 | 8245 ft | 233 kts | 308° |
| 2026-04-29 15:39 | -1.50781 | 36.85767 | 8321 ft | 227 kts | 314° |
| 2026-04-29 15:39 | -1.49616 | 36.84683 | 8319 ft | 225 kts | 318° |
| 2026-04-29 15:40 | -1.48469 | 36.83641 | 8316 ft | 221 kts | 318° |
| 2026-04-29 15:40 | -1.47337 | 36.82612 | 8308 ft | 218 kts | 318° |
| 2026-04-29 15:40 | -1.46227 | 36.81598 | 8286 ft | 217 kts | 318° |
| 2026-04-29 15:40 | -1.45117 | 36.80580 | 8258 ft | 216 kts | 317° |
| 2026-04-29 15:41 | -1.43927 | 36.79666 | 8215 ft | 215 kts | 332° |
| 2026-04-29 15:41 | -1.42487 | 36.79495 | 8192 ft | 211 kts | 10° |
| 2026-04-29 15:41 | -1.41162 | 36.80093 | 8258 ft | 215 kts | 34° |
| 2026-04-29 15:41 | -1.40192 | 36.81238 | 7995 ft | 216 kts | 58° |
| 2026-04-29 15:42 | -1.39381 | 36.82458 | 7607 ft | 208 kts | 57° |
| 2026-04-29 15:42 | -1.38581 | 36.83609 | 7253 ft | 195 kts | 56° |
| 2026-04-29 15:42 | -1.37802 | 36.84706 | 6995 ft | 186 kts | 56° |
| 2026-04-29 15:42 | -1.37087 | 36.85700 | 6785 ft | 175 kts | 56° |
| 2026-04-29 15:43 | -1.36374 | 36.86672 | 6493 ft | 171 kts | 55° |
| 2026-04-29 15:43 | -1.35687 | 36.87615 | 6256 ft | 163 kts | 56° |
| 2026-04-29 15:43 | -1.35014 | 36.88503 | 5910 ft | 171 kts | 56° |
| 2026-04-29 15:43 | -1.34308 | 36.89486 | 6021 ft | 162 kts | 54° |
| 2026-04-29 15:44 | -1.33657 | 36.90359 | 5611 ft | 170 kts | 55° |
| 2026-04-29 15:44 | -1.32922 | 36.91381 | 5487 ft | 177 kts | 56° |
| 2026-04-29 15:44 | -1.32279 | 36.92302 | 5354 ft | 129 kts | 57° |
| 2026-04-29 15:44 | -1.31672 | 36.93115 | 5341 ft | 165 kts | 60° |
| 2026-04-29 15:45 | -1.30976 | 36.94165 | 5420 ft | 191 kts | 56° |
| 2026-04-29 15:45 | -1.30183 | 36.95215 | 5988 ft | 191 kts | 54° |
| 2026-04-29 15:45 | -1.29388 | 36.96261 | 6714 ft | 186 kts | 53° |
| 2026-04-29 15:45 | -1.28603 | 36.97260 | 7349 ft | 183 kts | 53° |
| 2026-04-29 15:46 | -1.27781 | 36.98269 | 7540 ft | 191 kts | 52° |
| 2026-04-29 15:46 | -1.26965 | 36.99305 | 7519 ft | 184 kts | 65° |
| 2026-04-29 15:46 | -1.26506 | 37.00405 | 6080 ft | 171 kts | 81° |
| 2026-04-29 15:46 | -1.26432 | 37.01630 | 5059 ft | 219 kts | 98° |
| 2026-04-29 15:47 | -1.26968 | 37.05165 | 6569 ft | 221 kts | 106° |
| 2026-04-29 15:47 | -1.27374 | 37.06522 | 8086 ft | 195 kts | 110° |
| 2026-04-29 15:47 | -1.28016 | 37.07686 | 8781 ft | 188 kts | 128° |
| 2026-04-29 15:48 | -1.28996 | 37.08545 | 9141 ft | 192 kts | 142° |
| 2026-04-29 15:48 | -1.30111 | 37.09351 | 9144 ft | 204 kts | 144° |
| 2026-04-29 15:48 | -1.31307 | 37.10199 | 9033 ft | 215 kts | 144° |
| 2026-04-29 15:48 | -1.32581 | 37.11037 | 8890 ft | 221 kts | 158° |
| 2026-04-29 15:49 | -1.34068 | 37.11322 | 8172 ft | 215 kts | 190° |
| 2026-04-29 15:49 | -1.35409 | 37.11024 | 5717 ft | 195 kts | 214° |